sensor_id;sensor_type;location;lat;lon;timestamp;pressure;altitude;pressure_sealevel;temperature;humidity
71424;BME280;59240;51.370;-0.486;2024-02-23T00:01:16;98646.03;;;4.04;100.00
71424;BME280;59240;51.370;-0.486;2024-02-23T00:06:13;98651.09;;;4.07;100.00
71424;BME280;59240;51.370;-0.486;2024-02-23T00:11:11;98637.31;;;4.08;100.00
71424;BME280;59240;51.370;-0.486;2024-02-23T00:16:08;98585.91;;;3.75;100.00
71424;BME280;59240;51.370;-0.486;2024-02-23T00:21:05;98625.50;;;4.01;100.00
71424;BME280;59240;51.370;-0.486;2024-02-23T00:26:02;98615.22;;;4.01;100.00
71424;BME280;59240;51.370;-0.486;2024-02-23T00:30:59;98601.78;;;3.91;100.00
71424;BME280;59240;51.370;-0.486;2024-02-23T00:35:56;98609.28;;;3.99;100.00
71424;BME280;59240;51.370;-0.486;2024-02-23T00:40:53;98591.31;;;3.96;100.00
71424;BME280;59240;51.370;-0.486;2024-02-23T00:45:50;98589.53;;;3.98;100.00
71424;BME280;59240;51.370;-0.486;2024-02-23T00:50:46;98559.19;;;3.79;100.00
71424;BME280;59240;51.370;-0.486;2024-02-23T00:55:43;98572.31;;;4.00;100.00
71424;BME280;59240;51.370;-0.486;2024-02-23T01:00:43;98562.19;;;3.94;100.00
71424;BME280;59240;51.370;-0.486;2024-02-23T01:05:40;98560.50;;;3.93;100.00
71424;BME280;59240;51.370;-0.486;2024-02-23T01:10:39;98562.91;;;3.99;100.00
71424;BME280;59240;51.370;-0.486;2024-02-23T01:15:36;98558.63;;;3.98;100.00
71424;BME280;59240;51.370;-0.486;2024-02-23T01:20:33;98555.16;;;3.99;100.00
71424;BME280;59240;51.370;-0.486;2024-02-23T01:25:30;98546.56;;;4.00;100.00
71424;BME280;59240;51.370;-0.486;2024-02-23T01:30:26;98531.09;;;4.00;100.00
71424;BME280;59240;51.370;-0.486;2024-02-23T01:35:23;98524.00;;;4.06;100.00
71424;BME280;59240;51.370;-0.486;2024-02-23T01:40:20;98529.91;;;4.10;100.00
71424;BME280;59240;51.370;-0.486;2024-02-23T01:45:17;98525.44;;;4.15;100.00
71424;BME280;59240;51.370;-0.486;2024-02-23T01:50:14;98522.72;;;4.20;100.00
71424;BME280;59240;51.370;-0.486;2024-02-23T01:55:11;98518.22;;;4.26;100.00
71424;BME280;59240;51.370;-0.486;2024-02-23T02:00:10;98500.25;;;4.23;100.00
71424;BME280;59240;51.370;-0.486;2024-02-23T02:05:10;98474.03;;;4.12;100.00
71424;BME280;59240;51.370;-0.486;2024-02-23T02:10:08;98495.03;;;4.26;100.00
71424;BME280;59240;51.370;-0.486;2024-02-23T02:15:06;98481.25;;;4.27;100.00
71424;BME280;59240;51.370;-0.486;2024-02-23T02:20:03;98464.88;;;4.28;100.00
71424;BME280;59240;51.370;-0.486;2024-02-23T02:25:03;98451.94;;;4.30;100.00
71424;BME280;59240;51.370;-0.486;2024-02-23T02:30:00;98467.84;;;4.43;100.00
71424;BME280;59240;51.370;-0.486;2024-02-23T02:34:57;98447.72;;;4.52;100.00
71424;BME280;59240;51.370;-0.486;2024-02-23T02:39:54;98453.28;;;4.65;100.00
71424;BME280;59240;51.370;-0.486;2024-02-23T02:44:51;98427.06;;;4.77;100.00
71424;BME280;59240;51.370;-0.486;2024-02-23T02:49:48;98414.50;;;4.91;100.00
71424;BME280;59240;51.370;-0.486;2024-02-23T02:54:45;98415.88;;;5.02;100.00
71424;BME280;59240;51.370;-0.486;2024-02-23T02:59:42;98410.44;;;5.08;100.00
71424;BME280;59240;51.370;-0.486;2024-02-23T03:04:50;98409.97;;;5.21;100.00
71424;BME280;59240;51.370;-0.486;2024-02-23T03:09:47;98402.94;;;5.25;100.00
71424;BME280;59240;51.370;-0.486;2024-02-23T03:14:45;98384.09;;;5.23;100.00
71424;BME280;59240;51.370;-0.486;2024-02-23T03:19:42;98383.19;;;5.24;100.00
71424;BME280;59240;51.370;-0.486;2024-02-23T03:24:39;98364.38;;;5.20;100.00
71424;BME280;59240;51.370;-0.486;2024-02-23T03:29:38;98375.53;;;5.21;100.00
71424;BME280;59240;51.370;-0.486;2024-02-23T03:34:38;98371.34;;;5.18;100.00
71424;BME280;59240;51.370;-0.486;2024-02-23T03:39:35;98373.03;;;5.19;100.00
71424;BME280;59240;51.370;-0.486;2024-02-23T03:44:33;98378.91;;;5.23;100.00
71424;BME280;59240;51.370;-0.486;2024-02-23T03:49:30;98383.78;;;5.31;100.00
71424;BME280;59240;51.370;-0.486;2024-02-23T03:54:27;98369.91;;;5.33;100.00
71424;BME280;59240;51.370;-0.486;2024-02-23T03:59:29;98375.50;;;5.44;100.00
71424;BME280;59240;51.370;-0.486;2024-02-23T04:04:26;98381.31;;;5.49;100.00
71424;BME280;59240;51.370;-0.486;2024-02-23T04:09:23;98387.94;;;5.57;100.00
71424;BME280;59240;51.370;-0.486;2024-02-23T04:14:21;98386.78;;;5.64;100.00
71424;BME280;59240;51.370;-0.486;2024-02-23T04:19:18;98380.31;;;5.74;100.00
71424;BME280;59240;51.370;-0.486;2024-02-23T04:24:15;98389.56;;;5.80;100.00
71424;BME280;59240;51.370;-0.486;2024-02-23T04:29:12;98368.47;;;5.70;100.00
71424;BME280;59240;51.370;-0.486;2024-02-23T04:34:09;98373.94;;;5.83;100.00
71424;BME280;59240;51.370;-0.486;2024-02-23T04:39:06;98397.00;;;5.87;100.00
71424;BME280;59240;51.370;-0.486;2024-02-23T04:44:03;98392.84;;;5.83;100.00
71424;BME280;59240;51.370;-0.486;2024-02-23T04:49:00;98399.72;;;5.84;100.00
71424;BME280;59240;51.370;-0.486;2024-02-23T04:53:57;98409.94;;;5.87;100.00
71424;BME280;59240;51.370;-0.486;2024-02-23T04:58:54;98392.72;;;5.66;100.00
71424;BME280;59240;51.370;-0.486;2024-02-23T05:03:53;98434.56;;;5.74;100.00
71424;BME280;59240;51.370;-0.486;2024-02-23T05:08:50;98441.66;;;5.69;100.00
71424;BME280;59240;51.370;-0.486;2024-02-23T05:13:48;98442.78;;;5.62;100.00
71424;BME280;59240;51.370;-0.486;2024-02-23T05:18:44;98424.66;;;5.41;100.00
71424;BME280;59240;51.370;-0.486;2024-02-23T05:23:43;98449.31;;;5.50;100.00
71424;BME280;59240;51.370;-0.486;2024-02-23T05:28:40;98443.63;;;5.40;100.00
71424;BME280;59240;51.370;-0.486;2024-02-23T05:33:36;98447.28;;;5.35;100.00
71424;BME280;59240;51.370;-0.486;2024-02-23T05:38:35;98432.59;;;5.15;100.00
71424;BME280;59240;51.370;-0.486;2024-02-23T05:43:32;98457.91;;;5.27;100.00
71424;BME280;59240;51.370;-0.486;2024-02-23T05:48:29;98468.47;;;5.21;100.00
71424;BME280;59240;51.370;-0.486;2024-02-23T05:53:26;98468.72;;;5.15;100.00
71424;BME280;59240;51.370;-0.486;2024-02-23T05:58:23;98458.66;;;5.07;100.00
71424;BME280;59240;51.370;-0.486;2024-02-23T06:03:20;98408.47;;;4.69;100.00
71424;BME280;59240;51.370;-0.486;2024-02-23T06:08:17;98480.53;;;4.97;100.00
71424;BME280;59240;51.370;-0.486;2024-02-23T06:13:14;98481.50;;;4.94;100.00
71424;BME280;59240;51.370;-0.486;2024-02-23T06:18:11;98476.56;;;4.88;100.00
71424;BME280;59240;51.370;-0.486;2024-02-23T06:23:10;98432.16;;;4.55;100.00
71424;BME280;59240;51.370;-0.486;2024-02-23T06:28:07;98459.25;;;4.67;100.00
71424;BME280;59240;51.370;-0.486;2024-02-23T06:33:05;98473.63;;;4.74;100.00
71424;BME280;59240;51.370;-0.486;2024-02-23T06:38:03;98491.69;;;4.74;100.00
71424;BME280;59240;51.370;-0.486;2024-02-23T06:43:02;98496.94;;;4.71;100.00
71424;BME280;59240;51.370;-0.486;2024-02-23T06:47:59;98502.16;;;4.70;100.00
71424;BME280;59240;51.370;-0.486;2024-02-23T06:52:55;98494.56;;;4.65;100.00
71424;BME280;59240;51.370;-0.486;2024-02-23T06:57:52;98508.25;;;4.67;100.00
71424;BME280;59240;51.370;-0.486;2024-02-23T07:02:49;98522.09;;;4.64;100.00
71424;BME280;59240;51.370;-0.486;2024-02-23T07:07:46;98532.47;;;4.63;100.00
71424;BME280;59240;51.370;-0.486;2024-02-23T07:12:44;98528.28;;;4.59;100.00
71424;BME280;59240;51.370;-0.486;2024-02-23T07:17:41;98542.00;;;4.59;100.00
71424;BME280;59240;51.370;-0.486;2024-02-23T07:22:38;98540.53;;;4.52;100.00
71424;BME280;59240;51.370;-0.486;2024-02-23T07:27:35;98544.78;;;4.55;100.00
71424;BME280;59240;51.370;-0.486;2024-02-23T07:32:31;98539.81;;;4.49;100.00
71424;BME280;59240;51.370;-0.486;2024-02-23T07:37:29;98539.69;;;4.53;100.00
71424;BME280;59240;51.370;-0.486;2024-02-23T07:42:26;98553.28;;;4.57;100.00
71424;BME280;59240;51.370;-0.486;2024-02-23T07:47:27;98546.44;;;4.56;100.00
71424;BME280;59240;51.370;-0.486;2024-02-23T07:52:24;98554.88;;;4.61;100.00
71424;BME280;59240;51.370;-0.486;2024-02-23T07:57:21;98571.06;;;4.64;100.00
71424;BME280;59240;51.370;-0.486;2024-02-23T08:02:18;98542.06;;;4.58;100.00
71424;BME280;59240;51.370;-0.486;2024-02-23T08:07:16;98585.00;;;4.85;100.00
71424;BME280;59240;51.370;-0.486;2024-02-23T08:12:13;98583.75;;;4.97;100.00
71424;BME280;59240;51.370;-0.486;2024-02-23T08:17:11;98583.63;;;5.00;100.00
71424;BME280;59240;51.370;-0.486;2024-02-23T08:22:07;98579.91;;;5.09;100.00
71424;BME280;59240;51.370;-0.486;2024-02-23T08:27:04;98586.47;;;5.17;100.00
71424;BME280;59240;51.370;-0.486;2024-02-23T08:32:01;98597.22;;;5.30;100.00
71424;BME280;59240;51.370;-0.486;2024-02-23T08:36:58;98589.91;;;5.41;100.00
71424;BME280;59240;51.370;-0.486;2024-02-23T08:41:55;98594.91;;;5.46;100.00
71424;BME280;59240;51.370;-0.486;2024-02-23T08:46:52;98540.41;;;5.30;100.00
71424;BME280;59240;51.370;-0.486;2024-02-23T08:51:49;98606.81;;;5.73;100.00
71424;BME280;59240;51.370;-0.486;2024-02-23T08:56:45;98597.22;;;5.77;100.00
71424;BME280;59240;51.370;-0.486;2024-02-23T09:01:43;98559.59;;;5.70;100.00
71424;BME280;59240;51.370;-0.486;2024-02-23T09:06:41;98629.03;;;6.24;100.00
71424;BME280;59240;51.370;-0.486;2024-02-23T09:11:38;98629.22;;;6.42;100.00
71424;BME280;59240;51.370;-0.486;2024-02-23T09:16:35;98617.97;;;6.43;100.00
71424;BME280;59240;51.370;-0.486;2024-02-23T09:21:32;98645.53;;;6.66;100.00
71424;BME280;59240;51.370;-0.486;2024-02-23T09:26:30;98636.31;;;6.79;100.00
71424;BME280;59240;51.370;-0.486;2024-02-23T09:31:27;98646.06;;;6.94;100.00
71424;BME280;59240;51.370;-0.486;2024-02-23T09:36:24;98652.44;;;7.07;100.00
71424;BME280;59240;51.370;-0.486;2024-02-23T09:41:24;98638.91;;;7.21;100.00
71424;BME280;59240;51.370;-0.486;2024-02-23T09:46:22;98621.22;;;7.31;100.00
71424;BME280;59240;51.370;-0.486;2024-02-23T09:51:19;98640.81;;;7.57;100.00
71424;BME280;59240;51.370;-0.486;2024-02-23T09:56:18;98603.91;;;7.71;100.00
71424;BME280;59240;51.370;-0.486;2024-02-23T10:01:24;98635.66;;;8.13;100.00
71424;BME280;59240;51.370;-0.486;2024-02-23T10:06:24;98627.50;;;8.21;100.00
71424;BME280;59240;51.370;-0.486;2024-02-23T10:11:22;98640.06;;;8.49;100.00
71424;BME280;59240;51.370;-0.486;2024-02-23T10:16:20;98634.44;;;8.58;100.00
71424;BME280;59240;51.370;-0.486;2024-02-23T10:21:17;98650.66;;;8.98;100.00
71424;BME280;59240;51.370;-0.486;2024-02-23T10:26:14;98648.06;;;9.15;100.00
71424;BME280;59240;51.370;-0.486;2024-02-23T10:31:16;98644.59;;;9.49;100.00
71424;BME280;59240;51.370;-0.486;2024-02-23T10:36:15;98635.16;;;9.64;100.00
71424;BME280;59240;51.370;-0.486;2024-02-23T10:41:13;98617.75;;;9.98;100.00
71424;BME280;59240;51.370;-0.486;2024-02-23T10:46:12;98642.84;;;10.14;100.00
71424;BME280;59240;51.370;-0.486;2024-02-23T10:51:13;98643.69;;;10.15;100.00
71424;BME280;59240;51.370;-0.486;2024-02-23T10:56:16;98650.03;;;10.27;100.00
71424;BME280;59240;51.370;-0.486;2024-02-23T11:01:14;98645.00;;;10.39;100.00
71424;BME280;59240;51.370;-0.486;2024-02-23T11:06:11;98629.38;;;10.39;100.00
71424;BME280;59240;51.370;-0.486;2024-02-23T11:11:09;98647.69;;;10.84;100.00
71424;BME280;59240;51.370;-0.486;2024-02-23T11:16:08;98643.75;;;10.92;100.00
71424;BME280;59240;51.370;-0.486;2024-02-23T11:21:09;98644.53;;;11.09;100.00
71424;BME280;59240;51.370;-0.486;2024-02-23T11:26:13;98648.22;;;11.05;100.00
71424;BME280;59240;51.370;-0.486;2024-02-23T11:31:19;98638.97;;;11.29;100.00
71424;BME280;59240;51.370;-0.486;2024-02-23T11:36:42;98652.88;;;11.58;100.00
71424;BME280;59240;51.370;-0.486;2024-02-23T11:41:39;98648.59;;;11.71;100.00
71424;BME280;59240;51.370;-0.486;2024-02-23T11:46:36;98642.94;;;11.93;100.00
71424;BME280;59240;51.370;-0.486;2024-02-23T11:51:33;98620.94;;;11.55;100.00
71424;BME280;59240;51.370;-0.486;2024-02-23T11:56:30;98647.34;;;11.20;100.00
71424;BME280;59240;51.370;-0.486;2024-02-23T12:01:30;98630.81;;;10.75;100.00
71424;BME280;59240;51.370;-0.486;2024-02-23T12:06:29;98613.06;;;10.20;100.00
71424;BME280;59240;51.370;-0.486;2024-02-23T12:11:27;98594.44;;;9.96;100.00
71424;BME280;59240;51.370;-0.486;2024-02-23T12:16:25;98632.38;;;10.48;100.00
71424;BME280;59240;51.370;-0.486;2024-02-23T12:21:23;98637.91;;;10.73;100.00
71424;BME280;59240;51.370;-0.486;2024-02-23T12:26:22;98631.50;;;10.63;100.00
71424;BME280;59240;51.370;-0.486;2024-02-23T12:31:25;98628.69;;;10.52;100.00
71424;BME280;59240;51.370;-0.486;2024-02-23T12:36:23;98646.44;;;10.75;100.00
71424;BME280;59240;51.370;-0.486;2024-02-23T12:41:20;98617.41;;;10.67;100.00
71424;BME280;59240;51.370;-0.486;2024-02-23T12:46:20;98634.34;;;10.74;100.00
71424;BME280;59240;51.370;-0.486;2024-02-23T12:51:17;98627.66;;;10.54;100.00
71424;BME280;59240;51.370;-0.486;2024-02-23T12:56:14;98614.81;;;10.67;100.00
71424;BME280;59240;51.370;-0.486;2024-02-23T13:01:13;98619.72;;;10.87;100.00
71424;BME280;59240;51.370;-0.486;2024-02-23T13:06:10;98605.75;;;10.88;100.00
71424;BME280;59240;51.370;-0.486;2024-02-23T13:11:07;98613.00;;;10.83;100.00
71424;BME280;59240;51.370;-0.486;2024-02-23T13:16:04;98611.50;;;10.79;100.00
71424;BME280;59240;51.370;-0.486;2024-02-23T13:21:01;98607.97;;;10.80;100.00
71424;BME280;59240;51.370;-0.486;2024-02-23T13:25:59;98587.97;;;10.81;100.00
71424;BME280;59240;51.370;-0.486;2024-02-23T13:31:00;98551.72;;;10.62;100.00
71424;BME280;59240;51.370;-0.486;2024-02-23T13:35:56;98585.63;;;10.76;100.00
71424;BME280;59240;51.370;-0.486;2024-02-23T13:40:53;98600.16;;;10.80;100.00
71424;BME280;59240;51.370;-0.486;2024-02-23T13:45:53;98591.63;;;10.92;100.00
71424;BME280;59240;51.370;-0.486;2024-02-23T13:50:50;98572.06;;;10.71;100.00
71424;BME280;59240;51.370;-0.486;2024-02-23T13:55:47;98595.19;;;10.76;100.00
71424;BME280;59240;51.370;-0.486;2024-02-23T14:00:44;98588.81;;;10.81;100.00
71424;BME280;59240;51.370;-0.486;2024-02-23T14:05:41;98585.31;;;10.96;100.00
71424;BME280;59240;51.370;-0.486;2024-02-23T14:10:41;98560.28;;;10.94;100.00
71424;BME280;59240;51.370;-0.486;2024-02-23T14:15:40;98566.44;;;10.93;99.79
71424;BME280;59240;51.370;-0.486;2024-02-23T14:20:38;98575.47;;;11.16;100.00
71424;BME280;59240;51.370;-0.486;2024-02-23T14:25:34;98575.75;;;11.11;100.00
71424;BME280;59240;51.370;-0.486;2024-02-23T14:30:34;98557.41;;;10.84;100.00
71424;BME280;59240;51.370;-0.486;2024-02-23T14:35:30;98590.84;;;10.76;100.00
71424;BME280;59240;51.370;-0.486;2024-02-23T14:40:27;98578.00;;;10.43;100.00
71424;BME280;59240;51.370;-0.486;2024-02-23T14:45:24;98599.00;;;10.24;100.00
71424;BME280;59240;51.370;-0.486;2024-02-23T14:50:24;98579.41;;;10.01;100.00
71424;BME280;59240;51.370;-0.486;2024-02-23T14:55:21;98589.28;;;9.95;100.00
71424;BME280;59240;51.370;-0.486;2024-02-23T15:00:19;98586.00;;;9.59;100.00
71424;BME280;59240;51.370;-0.486;2024-02-23T15:05:16;98588.84;;;9.55;100.00
71424;BME280;59240;51.370;-0.486;2024-02-23T15:10:14;98598.22;;;9.42;100.00
71424;BME280;59240;51.370;-0.486;2024-02-23T15:15:11;98593.88;;;9.25;100.00
71424;BME280;59240;51.370;-0.486;2024-02-23T15:20:08;98601.13;;;9.36;100.00
71424;BME280;59240;51.370;-0.486;2024-02-23T15:25:06;98555.69;;;9.10;100.00
71424;BME280;59240;51.370;-0.486;2024-02-23T15:30:05;98583.22;;;9.14;100.00
71424;BME280;59240;51.370;-0.486;2024-02-23T15:35:05;98628.47;;;9.25;100.00
71424;BME280;59240;51.370;-0.486;2024-02-23T15:40:05;98622.09;;;9.15;100.00
71424;BME280;59240;51.370;-0.486;2024-02-23T15:45:05;98636.84;;;9.15;100.00
71424;BME280;59240;51.370;-0.486;2024-02-23T15:50:05;98641.44;;;8.92;100.00
71424;BME280;59240;51.370;-0.486;2024-02-23T15:55:22;98669.56;;;8.65;100.00
71424;BME280;59240;51.370;-0.486;2024-02-23T16:00:21;98665.09;;;8.12;100.00
71424;BME280;59240;51.370;-0.486;2024-02-23T16:05:18;98662.56;;;7.92;100.00
71424;BME280;59240;51.370;-0.486;2024-02-23T16:10:15;98688.44;;;7.73;100.00
71424;BME280;59240;51.370;-0.486;2024-02-23T16:15:13;98651.78;;;7.23;100.00
71424;BME280;59240;51.370;-0.486;2024-02-23T16:20:10;98682.72;;;7.26;100.00
71424;BME280;59240;51.370;-0.486;2024-02-23T16:25:08;98706.94;;;7.25;100.00
71424;BME280;59240;51.370;-0.486;2024-02-23T16:30:07;98710.22;;;7.08;100.00
71424;BME280;59240;51.370;-0.486;2024-02-23T16:35:05;98685.91;;;6.90;100.00
71424;BME280;59240;51.370;-0.486;2024-02-23T16:40:02;98695.84;;;6.79;100.00
71424;BME280;59240;51.370;-0.486;2024-02-23T16:45:00;98698.56;;;6.76;100.00
71424;BME280;59240;51.370;-0.486;2024-02-23T16:49:58;98705.66;;;6.71;100.00
71424;BME280;59240;51.370;-0.486;2024-02-23T16:54:55;98702.69;;;6.60;100.00
71424;BME280;59240;51.370;-0.486;2024-02-23T16:59:54;98717.16;;;6.64;100.00
71424;BME280;59240;51.370;-0.486;2024-02-23T17:04:50;98688.34;;;6.51;100.00
71424;BME280;59240;51.370;-0.486;2024-02-23T17:09:47;98701.22;;;6.52;100.00
71424;BME280;59240;51.370;-0.486;2024-02-23T17:14:47;98726.59;;;6.65;100.00
71424;BME280;59240;51.370;-0.486;2024-02-23T17:19:46;98716.25;;;6.65;100.00
71424;BME280;59240;51.370;-0.486;2024-02-23T17:24:43;98727.63;;;6.61;100.00
71424;BME280;59240;51.370;-0.486;2024-02-23T17:29:42;98737.44;;;6.52;100.00
71424;BME280;59240;51.370;-0.486;2024-02-23T17:34:40;98725.34;;;6.29;100.00
71424;BME280;59240;51.370;-0.486;2024-02-23T17:39:37;98770.78;;;6.37;100.00
71424;BME280;59240;51.370;-0.486;2024-02-23T17:44:34;98764.34;;;6.25;100.00
71424;BME280;59240;51.370;-0.486;2024-02-23T17:49:30;98734.31;;;5.97;100.00
71424;BME280;59240;51.370;-0.486;2024-02-23T17:54:28;98765.09;;;6.03;100.00
71424;BME280;59240;51.370;-0.486;2024-02-23T17:59:24;98747.69;;;5.84;100.00
71424;BME280;59240;51.370;-0.486;2024-02-23T18:04:21;98741.28;;;5.70;100.00
71424;BME280;59240;51.370;-0.486;2024-02-23T18:09:20;98783.00;;;5.83;100.00
71424;BME280;59240;51.370;-0.486;2024-02-23T18:14:17;98794.63;;;5.71;100.00
71424;BME280;59240;51.370;-0.486;2024-02-23T18:19:14;98812.84;;;5.67;100.00
71424;BME280;59240;51.370;-0.486;2024-02-23T18:24:11;98809.47;;;5.65;100.00
71424;BME280;59240;51.370;-0.486;2024-02-23T18:29:08;98806.91;;;5.65;100.00
71424;BME280;59240;51.370;-0.486;2024-02-23T18:34:06;98810.47;;;5.61;100.00
71424;BME280;59240;51.370;-0.486;2024-02-23T18:39:03;98810.66;;;5.55;100.00
71424;BME280;59240;51.370;-0.486;2024-02-23T18:44:02;98819.44;;;5.51;100.00
71424;BME280;59240;51.370;-0.486;2024-02-23T18:48:59;98831.69;;;5.44;100.00
71424;BME280;59240;51.370;-0.486;2024-02-23T18:53:59;98845.66;;;5.38;100.00
71424;BME280;59240;51.370;-0.486;2024-02-23T18:58:56;98849.19;;;5.36;100.00
71424;BME280;59240;51.370;-0.486;2024-02-23T19:03:53;98858.75;;;5.32;100.00
71424;BME280;59240;51.370;-0.486;2024-02-23T19:08:50;98837.78;;;5.15;100.00
71424;BME280;59240;51.370;-0.486;2024-02-23T19:13:48;98812.19;;;5.07;100.00
71424;BME280;59240;51.370;-0.486;2024-02-23T19:18:46;98844.22;;;5.28;100.00
71424;BME280;59240;51.370;-0.486;2024-02-23T19:23:42;98855.38;;;5.30;100.00
71424;BME280;59240;51.370;-0.486;2024-02-23T19:28:45;98874.47;;;5.25;100.00
71424;BME280;59240;51.370;-0.486;2024-02-23T19:33:42;98886.91;;;5.12;100.00
71424;BME280;59240;51.370;-0.486;2024-02-23T19:38:40;98863.59;;;4.85;100.00
71424;BME280;59240;51.370;-0.486;2024-02-23T19:43:38;98894.22;;;4.98;100.00
71424;BME280;59240;51.370;-0.486;2024-02-23T19:48:34;98879.09;;;4.85;100.00
71424;BME280;59240;51.370;-0.486;2024-02-23T19:53:31;98896.34;;;4.83;100.00
71424;BME280;59240;51.370;-0.486;2024-02-23T19:58:28;98894.22;;;4.68;100.00
71424;BME280;59240;51.370;-0.486;2024-02-23T20:03:25;98904.47;;;4.70;100.00
71424;BME280;59240;51.370;-0.486;2024-02-23T20:08:22;98910.59;;;4.67;100.00
71424;BME280;59240;51.370;-0.486;2024-02-23T20:13:20;98915.91;;;4.61;100.00
71424;BME280;59240;51.370;-0.486;2024-02-23T20:18:17;98911.00;;;4.52;100.00
71424;BME280;59240;51.370;-0.486;2024-02-23T20:23:14;98922.97;;;4.53;100.00
71424;BME280;59240;51.370;-0.486;2024-02-23T20:28:10;98896.16;;;4.29;100.00
71424;BME280;59240;51.370;-0.486;2024-02-23T20:33:07;98892.00;;;4.23;100.00
71424;BME280;59240;51.370;-0.486;2024-02-23T20:38:05;98906.72;;;4.18;100.00
71424;BME280;59240;51.370;-0.486;2024-02-23T20:43:02;98928.81;;;4.28;100.00
71424;BME280;59240;51.370;-0.486;2024-02-23T20:47:59;98920.44;;;4.20;100.00
71424;BME280;59240;51.370;-0.486;2024-02-23T20:52:56;98915.44;;;4.14;100.00
71424;BME280;59240;51.370;-0.486;2024-02-23T20:57:54;98924.22;;;4.07;100.00
71424;BME280;59240;51.370;-0.486;2024-02-23T21:02:51;98933.75;;;4.03;100.00
71424;BME280;59240;51.370;-0.486;2024-02-23T21:07:48;98896.81;;;3.69;100.00
71424;BME280;59240;51.370;-0.486;2024-02-23T21:12:53;98942.63;;;3.92;100.00
71424;BME280;59240;51.370;-0.486;2024-02-23T21:17:50;98939.38;;;3.85;100.00
71424;BME280;59240;51.370;-0.486;2024-02-23T21:22:48;98941.16;;;3.81;100.00
71424;BME280;59240;51.370;-0.486;2024-02-23T21:27:49;98922.66;;;3.66;100.00
71424;BME280;59240;51.370;-0.486;2024-02-23T21:32:46;98957.53;;;3.77;100.00
71424;BME280;59240;51.370;-0.486;2024-02-23T21:37:43;98964.47;;;3.75;100.00
71424;BME280;59240;51.370;-0.486;2024-02-23T21:42:40;98971.41;;;3.73;100.00
71424;BME280;59240;51.370;-0.486;2024-02-23T21:47:37;98975.84;;;3.67;100.00
71424;BME280;59240;51.370;-0.486;2024-02-23T21:52:35;98966.75;;;3.52;100.00
71424;BME280;59240;51.370;-0.486;2024-02-23T21:57:35;98990.66;;;3.57;100.00
71424;BME280;59240;51.370;-0.486;2024-02-23T22:02:32;98960.31;;;3.33;100.00
71424;BME280;59240;51.370;-0.486;2024-02-23T22:07:28;98993.41;;;3.48;100.00
71424;BME280;59240;51.370;-0.486;2024-02-23T22:12:26;98979.00;;;3.41;100.00
71424;BME280;59240;51.370;-0.486;2024-02-23T22:17:23;98967.34;;;3.24;100.00
71424;BME280;59240;51.370;-0.486;2024-02-23T22:22:20;98993.66;;;3.37;100.00
71424;BME280;59240;51.370;-0.486;2024-02-23T22:27:17;98993.00;;;3.27;100.00
71424;BME280;59240;51.370;-0.486;2024-02-23T22:32:14;98994.69;;;3.28;100.00
71424;BME280;59240;51.370;-0.486;2024-02-23T22:37:11;99007.66;;;3.24;100.00
71424;BME280;59240;51.370;-0.486;2024-02-23T22:42:08;99017.03;;;3.26;100.00
71424;BME280;59240;51.370;-0.486;2024-02-23T22:47:08;99016.31;;;3.20;100.00
71424;BME280;59240;51.370;-0.486;2024-02-23T22:52:06;99017.25;;;3.17;100.00
71424;BME280;59240;51.370;-0.486;2024-02-23T22:57:03;99022.50;;;3.11;100.00
71424;BME280;59240;51.370;-0.486;2024-02-23T23:02:00;99020.84;;;3.07;100.00
71424;BME280;59240;51.370;-0.486;2024-02-23T23:06:57;99013.50;;;2.90;100.00
71424;BME280;59240;51.370;-0.486;2024-02-23T23:11:54;99014.25;;;2.94;100.00
71424;BME280;59240;51.370;-0.486;2024-02-23T23:16:50;99027.97;;;2.96;100.00
71424;BME280;59240;51.370;-0.486;2024-02-23T23:21:47;99015.38;;;2.81;100.00
71424;BME280;59240;51.370;-0.486;2024-02-23T23:26:44;99012.19;;;2.68;100.00
71424;BME280;59240;51.370;-0.486;2024-02-23T23:31:42;99038.53;;;2.79;100.00
71424;BME280;59240;51.370;-0.486;2024-02-23T23:36:39;99033.63;;;2.68;100.00
71424;BME280;59240;51.370;-0.486;2024-02-23T23:41:36;99040.47;;;2.66;100.00
71424;BME280;59240;51.370;-0.486;2024-02-23T23:46:33;99050.88;;;2.62;100.00
71424;BME280;59240;51.370;-0.486;2024-02-23T23:51:30;99045.88;;;2.54;100.00
71424;BME280;59240;51.370;-0.486;2024-02-23T23:56:26;99054.47;;;2.52;100.00
